Time;durP1;ratioP1;P1;durP2;ratioP2;P2;SDS_P1;SDS_P2;PMS_P1;PMS_P2;Temp;Humidity;BMP_temperature;BMP_pressure;BME280_temperature;BME280_humidity;BME280_pressure;Samples;Min_cycle;Max_cycle;Signal;HPM_P1;HPM_P2
2021/06/28 00:00:59;;;;;;;3.28;2.50;;;;;;;19.95;66.29;96180.63;5070232;28;20045;-76
2021/06/28 00:03:26;;;;;;;4.15;2.40;;;;;;;19.90;66.30;96162.44;5070223;28;20048;-77
2021/06/28 00:05:53;;;;;;;3.72;2.30;;;;;;;19.87;66.76;96156.88;5070667;28;20052;-77
2021/06/28 00:08:20;;;;;;;3.55;2.20;;;;;;;19.82;66.36;96166.31;5072721;28;20045;-76
2021/06/28 00:10:46;;;;;;;2.45;1.75;;;;;;;19.79;66.12;96162.34;5074275;28;20044;-74
2021/06/28 00:13:13;;;;;;;6.25;2.10;;;;;;;19.76;65.77;96165.06;5073685;28;20036;-77
2021/06/28 00:15:39;;;;;;;4.28;2.42;;;;;;;19.72;67.12;96167.78;5074176;28;20036;-76
2021/06/28 00:18:07;;;;;;;2.50;1.60;;;;;;;19.67;65.97;96181.16;5073616;28;20044;-76
2021/06/28 00:20:34;;;;;;;4.25;2.15;;;;;;;19.63;65.83;96164.56;5074161;28;20047;-76
2021/06/28 00:23:03;;;;;;;2.58;2.00;;;;;;;19.61;66.03;96166.13;5073898;28;20040;-76
2021/06/28 00:25:30;;;;;;;2.88;2.08;;;;;;;19.59;65.98;96166.50;5073855;28;20044;-76
2021/06/28 00:27:57;;;;;;;3.15;2.08;;;;;;;19.53;66.02;96160.50;5073909;28;20041;-77
2021/06/28 00:30:24;;;;;;;4.63;2.65;;;;;;;19.52;66.79;96164.44;5073165;28;20044;-76
2021/06/28 00:32:52;;;;;;;4.53;2.40;;;;;;;19.53;67.11;96171.56;5073945;28;20048;-76
2021/06/28 00:35:20;;;;;;;3.45;2.10;;;;;;;19.56;66.83;96172.75;5073417;28;20053;-76
2021/06/28 00:37:48;;;;;;;4.15;2.60;;;;;;;19.54;65.66;96178.66;5073749;28;20090;-75
2021/06/28 00:40:18;;;;;;;5.60;2.97;;;;;;;19.47;65.84;96175.84;5073359;28;20048;-75
2021/06/28 00:42:44;;;;;;;3.97;2.55;;;;;;;19.41;65.45;96173.78;5073556;28;20044;-76
2021/06/28 00:45:20;;;;;;;4.00;2.58;;;;;;;19.36;66.71;96174.94;5073405;28;20049;-77
2021/06/28 00:47:47;;;;;;;4.05;2.80;;;;;;;19.27;67.43;96164.22;5073221;28;20499;-76
2021/06/28 00:50:15;;;;;;;5.18;2.72;;;;;;;19.20;67.91;96158.59;5073205;28;20053;-76
2021/06/28 00:52:42;;;;;;;4.93;2.50;;;;;;;19.19;68.54;96158.97;5073608;28;20044;-76
2021/06/28 00:55:10;;;;;;;3.35;2.40;;;;;;;19.21;68.38;96159.38;5073040;28;20050;-76
2021/06/28 00:57:39;;;;;;;5.97;4.47;;;;;;;19.19;68.30;96162.53;5069915;28;20048;-76
2021/06/28 01:00:09;;;;;;;3.53;2.42;;;;;;;19.16;68.48;96162.50;5069883;28;20415;-75
2021/06/28 01:02:36;;;;;;;3.40;2.30;;;;;;;19.17;68.14;96158.56;5073483;28;20040;-76
2021/06/28 01:05:05;;;;;;;4.60;2.88;;;;;;;19.14;67.98;96165.63;5065921;28;20499;-75
2021/06/28 01:07:32;;;;;;;5.53;2.17;;;;;;;19.11;67.72;96154.56;5073362;28;20040;-76
2021/06/28 01:09:59;;;;;;;4.10;2.58;;;;;;;19.10;67.89;96155.72;5073115;28;20055;-75
2021/06/28 01:12:25;;;;;;;3.25;2.42;;;;;;;19.11;68.32;96165.63;5072718;28;20036;-78
2021/06/28 01:14:54;;;;;;;5.05;2.22;;;;;;;19.16;67.30;96179.03;5073212;28;20041;-77
2021/06/28 01:17:20;;;;;;;4.88;2.50;;;;;;;19.09;67.66;96190.03;5053458;28;20045;-76
2021/06/28 01:19:58;;;;;;;6.65;2.40;;;;;;;18.99;67.56;96186.75;5051902;28;20491;-76
2021/06/28 01:22:26;;;;;;;2.97;2.28;;;;;;;18.96;67.77;96184.75;5052608;28;20049;-76
2021/06/28 01:24:56;;;;;;;4.57;2.63;;;;;;;18.96;68.23;96182.00;5052867;28;20523;-77
2021/06/28 01:27:23;;;;;;;4.55;2.63;;;;;;;18.95;68.85;96190.63;5052329;28;20404;-76
2021/06/28 01:29:50;;;;;;;3.63;2.13;;;;;;;18.96;69.28;96186.72;5052627;28;20407;-75
2021/06/28 01:32:17;;;;;;;3.80;2.50;;;;;;;18.95;69.25;96191.47;5052265;28;20053;-76
2021/06/28 01:34:43;;;;;;;5.20;2.97;;;;;;;18.94;69.63;96189.84;5052563;28;20050;-78
2021/06/28 01:37:20;;;;;;;4.93;2.80;;;;;;;18.96;69.66;96187.53;5052181;28;20045;-76
2021/06/28 01:39:48;;;;;;;5.95;2.67;;;;;;;19.00;69.61;96176.50;5052432;28;20132;-76
2021/06/28 01:42:16;;;;;;;4.38;2.40;;;;;;;19.00;69.73;96177.31;5052033;28;20041;-76
2021/06/28 01:44:43;;;;;;;3.50;2.35;;;;;;;18.98;68.96;96184.38;5052534;28;20048;-76
2021/06/28 01:47:09;;;;;;;4.10;2.55;;;;;;;18.92;68.00;96178.41;5051969;28;20056;-76
2021/06/28 01:49:36;;;;;;;3.30;2.05;;;;;;;18.83;68.22;96172.38;5052437;28;20052;-74
2021/06/28 01:52:02;;;;;;;3.63;2.22;;;;;;;18.78;68.48;96175.47;5052036;28;20045;-73
2021/06/28 01:54:29;;;;;;;5.90;2.30;;;;;;;18.79;68.62;96188.09;5052329;28;20049;-75
2021/06/28 01:56:56;;;;;;;5.75;2.83;;;;;;;18.82;68.69;96186.56;5052346;28;20056;-75
2021/06/28 01:59:25;;;;;;;3.55;2.20;;;;;;;18.85;68.73;96192.13;5051615;28;20056;-75
2021/06/28 02:01:52;;;;;;;3.92;2.08;;;;;;;18.92;68.54;96186.69;5052122;28;20542;-74
2021/06/28 02:04:19;;;;;;;6.88;2.45;;;;;;;18.95;68.70;96191.47;5051255;28;20049;-74
2021/06/28 02:06:45;;;;;;;3.75;2.28;;;;;;;18.96;68.57;96179.25;5052192;28;20095;-74
2021/06/28 02:09:12;;;;;;;3.20;2.30;;;;;;;18.96;68.28;96173.72;5051557;28;20128;-74
2021/06/28 02:11:38;;;;;;;3.28;2.25;;;;;;;18.97;68.35;96178.06;5051952;28;20041;-75
2021/06/28 02:14:05;;;;;;;3.38;2.10;;;;;;;18.99;68.35;96186.75;5051520;28;20041;-76
2021/06/28 02:16:33;;;;;;;6.88;2.42;;;;;;;19.01;68.32;96183.63;5052005;28;20060;-75
2021/06/28 02:18:59;;;;;;;3.17;2.10;;;;;;;19.09;69.03;96173.47;5051902;28;20044;-74
2021/06/28 02:21:26;;;;;;;3.15;1.85;;;;;;;19.08;68.80;96166.34;5051514;28;20048;-74
2021/06/28 02:23:52;;;;;;;4.15;2.28;;;;;;;19.06;68.09;96174.22;5051903;28;20049;-74
2021/06/28 02:26:19;;;;;;;5.10;2.30;;;;;;;19.04;68.33;96172.63;5051303;28;20049;-74
2021/06/28 02:28:48;;;;;;;3.90;2.10;;;;;;;19.08;68.80;96177.41;5051501;28;20041;-75
2021/06/28 02:31:19;;;;;;;5.40;2.10;;;;;;;19.11;68.92;96173.91;5051149;28;20067;-74
2021/06/28 02:33:50;;;;;;;5.40;2.42;;;;;;;19.12;68.82;96178.25;5051563;28;20461;-76
2021/06/28 02:36:17;;;;;;;8.73;2.60;;;;;;;19.11;68.57;96174.69;5050670;28;20045;-75
2021/06/28 02:38:45;;;;;;;6.93;2.13;;;;;;;19.13;68.81;96174.31;5051372;28;20049;-75
2021/06/28 02:41:12;;;;;;;5.10;1.98;;;;;;;19.14;68.81;96175.88;5050712;28;20055;-75
2021/06/28 02:43:40;;;;;;;6.53;2.42;;;;;;;19.14;66.78;96190.47;5051179;28;20041;-74
2021/06/28 02:46:07;;;;;;;4.75;2.50;;;;;;;18.99;66.83;96208.81;5050715;28;20049;-75
2021/06/28 02:48:34;;;;;;;7.28;2.20;;;;;;;18.85;67.60;96211.44;5051139;28;20045;-76
2021/06/28 02:51:03;;;;;;;5.22;2.28;;;;;;;18.63;68.39;96201.25;5051150;28;20056;-77
2021/06/28 02:53:30;;;;;;;8.93;2.63;;;;;;;18.55;68.35;96194.06;5050770;28;20408;-76
2021/06/28 02:56:12;;;;;;;6.95;1.95;;;;;;;18.53;69.01;96188.91;5051086;28;20048;-76
2021/06/28 02:58:39;;;;;;;6.93;2.13;;;;;;;18.56;69.07;96190.13;5071149;28;20041;-76
2021/06/28 03:01:05;;;;;;;6.30;2.42;;;;;;;18.58;68.90;96193.28;5070797;28;20055;-76
2021/06/28 03:03:32;;;;;;;4.63;2.15;;;;;;;18.54;68.98;96198.78;5071184;28;20049;-76
2021/06/28 03:05:58;;;;;;;9.50;2.65;;;;;;;18.50;68.90;96207.00;5054589;28;20055;-76
2021/06/28 03:08:26;;;;;;;4.10;2.00;;;;;;;18.44;69.37;96200.22;5050670;28;20511;-76
2021/06/28 03:10:53;;;;;;;4.72;1.92;;;;;;;18.41;69.44;96195.44;5051026;28;20067;-77
2021/06/28 03:13:19;;;;;;;3.22;2.10;;;;;;;18.40;70.17;96182.81;5050740;28;20037;-77
2021/06/28 03:15:46;;;;;;;3.72;2.25;;;;;;;18.40;70.24;96198.56;5051178;28;20129;-76
2021/06/28 03:18:12;;;;;;;3.90;2.55;;;;;;;18.44;69.67;96204.94;5050288;28;20072;-76
2021/06/28 03:20:39;;;;;;;7.35;2.53;;;;;;;18.42;69.58;96205.28;5050923;28;20044;-76
2021/06/28 03:23:06;;;;;;;2.83;1.92;;;;;;;18.40;69.43;96199.38;5050488;28;20041;-76
2021/06/28 03:25:34;;;;;;;3.88;2.40;;;;;;;18.39;70.45;96191.47;5051082;28;20055;-76
2021/06/28 03:28:00;;;;;;;5.18;2.50;;;;;;;18.41;70.75;96181.66;5050867;28;20052;-76
2021/06/28 03:30:27;;;;;;;3.15;2.40;;;;;;;18.39;70.65;96184.00;5050569;28;20820;-76
2021/06/28 03:32:53;;;;;;;5.30;2.45;;;;;;;18.39;70.64;96185.97;5051032;28;20044;-77
2021/06/28 03:35:20;;;;;;;9.05;3.05;;;;;;;18.43;71.46;96190.38;5049844;28;20049;-76
2021/06/28 03:37:46;;;;;;;5.82;2.40;;;;;;;18.47;70.56;96198.66;5051194;28;20053;-76
2021/06/28 03:40:14;;;;;;;6.85;2.35;;;;;;;18.46;70.24;96208.09;5050504;28;20123;-74
2021/06/28 03:42:42;;;;;;;7.50;3.22;;;;;;;18.46;70.72;96210.88;5052485;28;20560;-75
2021/06/28 03:45:12;;;;;;;5.22;2.20;;;;;;;18.51;71.22;96216.84;5054744;28;20045;-75
2021/06/28 03:47:39;;;;;;;6.72;2.30;;;;;;;18.57;70.27;96224.81;5054902;28;20049;-75
2021/06/28 03:50:08;;;;;;;4.47;2.50;;;;;;;18.51;70.26;96205.81;5054678;28;20403;-74
2021/06/28 03:52:35;;;;;;;4.97;2.65;;;;;;;18.52;71.00;96196.38;5054893;28;20052;-74
2021/06/28 03:55:02;;;;;;;6.10;2.80;;;;;;;18.50;71.21;96192.41;5054727;28;20458;-74
2021/06/28 03:57:28;;;;;;;5.13;2.50;;;;;;;18.52;71.25;96201.09;5054285;28;20041;-74
2021/06/28 03:59:56;;;;;;;3.65;2.40;;;;;;;18.51;70.72;96200.31;5054284;28;20045;-75
2021/06/28 04:02:23;;;;;;;4.70;2.00;;;;;;;18.50;70.97;96204.25;5053942;28;20056;-74
2021/06/28 04:04:49;;;;;;;4.32;2.42;;;;;;;18.55;71.21;96199.56;5053809;28;20056;-75
2021/06/28 04:07:16;;;;;;;9.43;3.25;;;;;;;18.56;71.29;96203.91;5053779;28;20455;-74
2021/06/28 04:09:43;;;;;;;7.70;2.72;;;;;;;18.57;71.35;96194.47;5054233;28;20045;-75
2021/06/28 04:12:10;;;;;;;5.97;3.35;;;;;;;18.56;71.15;96210.22;5053671;28;20045;-74
2021/06/28 04:14:37;;;;;;;3.75;2.40;;;;;;;18.60;71.06;96213.81;5054031;28;20492;-74
2021/06/28 04:17:05;;;;;;;5.45;2.95;;;;;;;18.61;71.03;96215.41;5053598;28;20041;-75
2021/06/28 04:19:31;;;;;;;6.47;2.50;;;;;;;18.61;70.54;96209.91;5053891;28;20041;-75
2021/06/28 04:21:58;;;;;;;5.03;2.53;;;;;;;18.58;70.43;96212.59;5054080;28;20045;-75
2021/06/28 04:24:24;;;;;;;6.13;3.10;;;;;;;18.55;69.60;96205.88;5053551;28;20068;-77
2021/06/28 04:26:51;;;;;;;7.85;3.22;;;;;;;18.58;69.91;96204.31;5054072;28;20041;-75
2021/06/28 04:29:17;;;;;;;4.00;2.72;;;;;;;18.60;70.29;96202.00;5053360;28;20060;-75
2021/06/28 04:31:44;;;;;;;6.82;2.30;;;;;;;18.56;70.02;96206.66;5054173;28;20068;-75
2021/06/28 04:34:12;;;;;;;7.30;3.33;;;;;;;18.58;70.10;96216.16;5053018;28;20041;-76
2021/06/28 04:36:38;;;;;;;6.10;2.60;;;;;;;18.60;70.79;96219.34;5054090;28;20041;-74
2021/06/28 04:39:05;;;;;;;5.85;2.50;;;;;;;18.63;70.69;96213.06;5053284;28;20061;-76
2021/06/28 04:41:32;;;;;;;4.82;2.38;;;;;;;18.65;70.75;96221.00;5053786;28;20056;-74
2021/06/28 04:43:58;;;;;;;4.63;2.75;;;;;;;18.66;69.01;96211.53;5053625;28;20522;-77
2021/06/28 04:46:24;;;;;;;4.00;2.33;;;;;;;18.67;69.42;96218.63;5053398;28;20045;-77
2021/06/28 04:48:51;;;;;;;3.92;2.58;;;;;;;18.72;69.20;96221.09;5053305;28;20041;-74
2021/06/28 04:51:19;;;;;;;5.15;2.47;;;;;;;18.72;69.70;96210.84;5053265;28;20048;-76
2021/06/28 04:53:45;;;;;;;3.95;2.80;;;;;;;18.73;69.41;96211.66;5053625;28;20037;-75
2021/06/28 04:56:12;;;;;;;4.07;2.45;;;;;;;18.66;69.27;96211.53;5053110;28;20111;-75
2021/06/28 04:58:38;;;;;;;7.47;2.70;;;;;;;18.65;70.00;96208.00;5053380;28;20416;-75
2021/06/28 05:01:05;;;;;;;5.30;4.32;;;;;;;18.68;70.65;96215.53;5052908;28;20053;-74
2021/06/28 05:03:31;;;;;;;4.85;3.25;;;;;;;18.74;69.88;96213.22;5052475;28;20041;-75
2021/06/28 05:05:58;;;;;;;4.55;2.42;;;;;;;18.80;70.02;96216.50;5052219;28;20041;-75
2021/06/28 05:08:26;;;;;;;3.75;2.30;;;;;;;18.83;69.76;96222.03;5052860;28;20041;-75
2021/06/28 05:10:52;;;;;;;3.58;2.30;;;;;;;18.87;69.32;96216.56;5053148;28;20713;-75
2021/06/28 05:13:19;;;;;;;4.30;2.17;;;;;;;18.90;69.68;96222.13;5052850;28;20143;-75
2021/06/28 05:15:45;;;;;;;3.58;2.38;;;;;;;18.88;69.30;96221.69;5053278;28;20041;-75
2021/06/28 05:18:12;;;;;;;3.58;2.28;;;;;;;18.94;69.55;96227.69;5052554;28;20041;-75
2021/06/28 05:20:38;;;;;;;4.00;2.63;;;;;;;18.99;69.55;96230.09;5053043;28;20491;-75
2021/06/28 05:23:05;;;;;;;4.80;2.10;;;;;;;18.95;69.78;96230.09;5052669;28;20439;-75
2021/06/28 05:25:32;;;;;;;3.90;2.70;;;;;;;18.97;70.06;96236.00;5053043;28;20056;-76
2021/06/28 05:27:59;;;;;;;5.00;2.38;;;;;;;19.01;70.27;96223.06;5052905;28;20052;-75
2021/06/28 05:30:25;;;;;;;4.10;2.65;;;;;;;19.10;70.01;96230.25;5052345;28;20049;-75
2021/06/28 05:32:52;;;;;;;5.15;2.40;;;;;;;19.15;70.02;96227.16;5052747;28;20044;-75
2021/06/28 05:35:19;;;;;;;3.67;2.25;;;;;;;19.24;69.89;96228.44;5052302;28;20045;-76
2021/06/28 05:37:45;;;;;;;4.53;2.40;;;;;;;19.32;69.79;96229.34;5052810;28;20044;-74
2021/06/28 05:40:12;;;;;;;4.90;2.10;;;;;;;19.37;69.73;96239.22;5052173;28;20064;-74
2021/06/28 05:42:42;;;;;;;4.97;2.38;;;;;;;19.43;70.45;96232.22;5052727;28;20056;-75
2021/06/28 05:45:09;;;;;;;4.78;2.30;;;;;;;19.48;70.52;96234.63;5052308;28;20049;-74
2021/06/28 05:47:36;;;;;;;3.72;2.15;;;;;;;19.50;70.39;96229.50;5052269;28;20053;-75
2021/06/28 05:50:04;;;;;;;3.40;2.25;;;;;;;19.58;70.18;96222.09;5052198;28;20518;-74
2021/06/28 05:52:30;;;;;;;7.85;2.72;;;;;;;19.69;70.10;96234.09;5052543;28;20051;-75
2021/06/28 05:54:57;;;;;;;3.58;2.55;;;;;;;19.74;69.96;96220.72;5052215;28;20527;-74
2021/06/28 05:57:24;;;;;;;2.95;2.15;;;;;;;19.82;69.69;96227.09;5051811;28;20041;-75
2021/06/28 05:59:54;;;;;;;6.72;3.00;;;;;;;19.83;69.32;96225.91;5051297;28;20206;-75
2021/06/28 06:02:21;;;;;;;9.52;2.85;;;;;;;19.82;69.23;96227.09;5048957;28;20060;-75
2021/06/28 06:04:48;;;;;;;3.25;2.35;;;;;;;19.90;69.54;96220.47;5048566;28;20488;-75
2021/06/28 06:07:14;;;;;;;4.22;2.95;;;;;;;20.04;69.68;96217.78;5048843;28;20063;-74
2021/06/28 06:09:41;;;;;;;4.18;2.60;;;;;;;20.12;69.20;96221.41;5050268;28;20052;-74
2021/06/28 06:12:09;;;;;;;3.90;2.55;;;;;;;20.25;69.67;96221.91;5050394;28;20389;-76
2021/06/28 06:14:35;;;;;;;4.95;2.80;;;;;;;20.22;68.29;96217.94;5050432;28;20045;-78
2021/06/28 06:17:03;;;;;;;4.30;2.85;;;;;;;20.30;68.67;96213.25;5050248;28;20048;-77
2021/06/28 06:19:30;;;;;;;5.70;2.45;;;;;;;20.37;68.93;96213.31;5050184;28;20033;-78
2021/06/28 06:21:56;;;;;;;3.53;2.40;;;;;;;20.47;69.11;96220.91;5049839;28;20045;-77
2021/06/28 06:24:27;;;;;;;4.85;2.92;;;;;;;20.50;67.52;96222.91;5050619;28;20041;-78
2021/06/28 06:26:53;;;;;;;5.38;2.83;;;;;;;20.50;67.62;96225.66;5051841;28;20037;-77
2021/06/28 06:29:20;;;;;;;4.00;2.88;;;;;;;20.55;66.94;96225.31;5051376;28;20057;-78
2021/06/28 06:31:46;;;;;;;4.68;2.60;;;;;;;20.67;67.29;96223.38;5051519;28;20044;-77
2021/06/28 06:34:15;;;;;;;3.70;2.90;;;;;;;20.73;66.48;96224.63;5051293;28;20045;-77
2021/06/28 06:36:41;;;;;;;4.60;2.75;;;;;;;20.82;65.79;96227.81;5051615;28;20146;-77
2021/06/28 06:39:08;;;;;;;3.35;2.35;;;;;;;20.83;65.94;96226.66;5051238;28;20049;-76
2021/06/28 06:41:34;;;;;;;3.75;2.42;;;;;;;20.90;66.71;96223.91;5051813;28;20048;-78
2021/06/28 06:44:01;;;;;;;3.38;2.40;;;;;;;21.03;66.73;96235.44;5051621;28;20045;-78
2021/06/28 06:46:27;;;;;;;3.60;2.42;;;;;;;21.07;65.43;96234.25;5051376;28;20052;-77
2021/06/28 06:48:54;;;;;;;3.60;2.55;;;;;;;21.14;64.71;96243.78;5051206;28;20041;-77
2021/06/28 06:51:22;;;;;;;3.15;2.40;;;;;;;21.17;65.14;96248.56;5050980;28;20052;-78
2021/06/28 06:53:48;;;;;;;5.72;2.70;;;;;;;21.26;64.73;96251.75;5051536;28;20403;-75
2021/06/28 06:56:15;;;;;;;5.72;2.40;;;;;;;21.32;65.36;96256.56;5050952;28;20049;-79
2021/06/28 06:58:41;;;;;;;3.30;2.53;;;;;;;21.38;65.06;96254.19;5051352;28;20474;-77
2021/06/28 07:01:09;;;;;;;4.85;2.22;;;;;;;21.46;64.49;96264.13;5050812;28;20048;-77
2021/06/28 07:03:35;;;;;;;5.72;2.58;;;;;;;21.53;64.94;96255.84;5051376;28;20412;-79
2021/06/28 07:06:02;;;;;;;3.72;2.40;;;;;;;21.60;64.44;96255.84;5050779;28;20411;-74
2021/06/28 07:08:30;;;;;;;3.63;2.60;;;;;;;21.66;63.40;96258.22;5051311;28;20041;-76
2021/06/28 07:10:56;;;;;;;10.60;2.42;;;;;;;21.65;64.40;96260.22;5051199;28;20049;-77
2021/06/28 07:13:23;;;;;;;3.67;2.50;;;;;;;21.74;63.86;96260.63;5050675;28;20052;-78
2021/06/28 07:15:50;;;;;;;4.97;2.50;;;;;;;21.84;64.07;96259.06;5051135;28;20048;-77
2021/06/28 07:18:16;;;;;;;7.00;2.70;;;;;;;21.91;63.61;96250.75;5049778;28;20049;-77
2021/06/28 07:20:42;;;;;;;3.45;2.67;;;;;;;21.93;62.61;96259.47;5050991;28;20044;-77
2021/06/28 07:23:09;;;;;;;3.17;2.38;;;;;;;21.99;63.80;96255.13;5050609;28;20519;-77
2021/06/28 07:25:37;;;;;;;3.67;2.58;;;;;;;22.07;63.63;96251.16;5051118;28;20048;-79
2021/06/28 07:28:04;;;;;;;3.50;2.70;;;;;;;22.12;63.51;96244.47;5050481;28;20048;-77
2021/06/28 07:30:31;;;;;;;5.22;2.60;;;;;;;22.26;64.16;96240.91;5050866;28;20033;-78
2021/06/28 07:32:57;;;;;;;3.15;2.17;;;;;;;22.34;61.53;96236.91;5050972;28;20420;-77
2021/06/28 07:35:24;;;;;;;5.65;2.08;;;;;;;22.48;63.03;96241.66;5050404;28;20052;-77
2021/06/28 07:37:51;;;;;;;8.27;2.92;;;;;;;22.59;61.43;96242.44;5051056;28;20049;-77
2021/06/28 07:40:19;;;;;;;3.00;2.30;;;;;;;22.69;61.77;96246.41;5050297;28;20045;-77
2021/06/28 07:42:47;;;;;;;4.25;2.70;;;;;;;22.75;62.52;96236.47;5050757;28;20512;-77
2021/06/28 07:45:14;;;;;;;4.80;2.40;;;;;;;22.85;62.71;96236.44;5050330;28;20055;-78
2021/06/28 07:47:42;;;;;;;7.55;3.05;;;;;;;22.97;62.49;96235.25;5050506;28;20136;-77
2021/06/28 07:50:10;;;;;;;4.80;2.40;;;;;;;23.07;61.21;96237.19;5050466;28;20044;-77
2021/06/28 07:52:37;;;;;;;7.20;2.70;;;;;;;23.08;61.67;96238.00;5050764;28;20412;-77
2021/06/28 07:55:05;;;;;;;3.83;2.50;;;;;;;23.22;61.93;96234.34;5050285;28;20045;-78
2021/06/28 07:57:32;;;;;;;4.43;2.50;;;;;;;23.38;61.73;96229.91;5050877;28;20049;-78
2021/06/28 08:00:00;;;;;;;2.47;2.20;;;;;;;23.52;60.36;96226.28;5050374;28;20037;-79
2021/06/28 08:02:27;;;;;;;8.77;2.47;;;;;;;23.59;59.71;96231.78;5050409;28;20098;-80
2021/06/28 08:04:53;;;;;;;3.13;2.10;;;;;;;23.63;59.81;96232.59;5050428;28;20049;-81
2021/06/28 08:07:21;;;;;;;2.65;2.13;;;;;;;23.72;59.68;96234.13;5049965;28;20048;-78
2021/06/28 08:09:47;;;;;;;3.15;2.13;;;;;;;23.84;59.62;96230.88;5050518;28;20037;-79
2021/06/28 08:12:14;;;;;;;5.57;2.17;;;;;;;24.05;59.95;96227.94;5049963;28;20044;-78
2021/06/28 08:14:40;;;;;;;4.45;2.28;;;;;;;24.21;56.84;96219.84;5050490;28;20041;-76
2021/06/28 08:17:08;;;;;;;4.55;2.70;;;;;;;24.47;57.64;96212.09;5050048;28;20041;-76
2021/06/28 08:19:35;;;;;;;3.97;2.40;;;;;;;25.70;56.01;96219.44;5050228;28;20434;-78
2021/06/28 08:22:01;;;;;;;4.60;1.95;;;;;;;27.01;51.27;96214.88;5050438;28;20049;-77
2021/06/28 08:24:28;;;;;;;3.22;1.90;;;;;;;27.89;47.18;96210.69;5049881;28;20049;-77
2021/06/28 08:26:55;;;;;;;2.05;1.70;;;;;;;28.53;45.10;96209.13;5050195;28;20033;-77
2021/06/28 08:29:21;;;;;;;2.00;1.60;;;;;;;29.23;42.76;96211.22;5052579;28;20055;-78
2021/06/28 08:31:48;;;;;;;2.45;1.60;;;;;;;30.06;42.13;96201.13;5054069;28;20045;-79
2021/06/28 08:34:16;;;;;;;5.35;1.80;;;;;;;30.70;40.90;96195.44;5057327;28;20051;-78
2021/06/28 08:36:45;;;;;;;3.72;1.90;;;;;;;31.23;40.67;96199.19;5074041;28;20056;-79
2021/06/28 08:39:12;;;;;;;4.43;1.80;;;;;;;31.47;39.74;96190.28;5073664;28;20128;-79
2021/06/28 08:41:43;;;;;;;4.47;1.60;;;;;;;31.89;38.26;96188.63;5073676;28;20044;-79
2021/06/28 08:44:10;;;;;;;2.05;1.80;;;;;;;32.15;37.17;96191.25;5073324;28;20063;-79
2021/06/28 08:46:37;;;;;;;3.13;1.70;;;;;;;32.39;37.17;96191.50;5073690;28;20054;-79
2021/06/28 08:49:04;;;;;;;2.75;2.10;;;;;;;32.56;36.85;96192.00;5073130;28;20086;-79
2021/06/28 08:51:32;;;;;;;4.90;1.48;;;;;;;32.76;38.01;96186.69;5073629;28;20044;-79
2021/06/28 08:54:03;;;;;;;2.70;1.42;;;;;;;32.88;37.94;96188.56;5073446;28;20044;-79
2021/06/28 08:56:29;;;;;;;1.67;1.40;;;;;;;32.65;37.50;96181.53;5093509;28;20563;-78
2021/06/28 08:58:56;;;;;;;2.53;1.92;;;;;;;32.52;37.17;96186.50;5087414;28;20413;-78
2021/06/28 09:01:23;;;;;;;1.85;1.35;;;;;;;32.19;34.71;96183.44;5072825;28;20523;-79
2021/06/28 09:03:49;;;;;;;3.40;1.52;;;;;;;31.80;39.40;96177.34;5073843;28;20044;-79
2021/06/28 09:06:23;;;;;;;3.90;1.60;;;;;;;31.33;41.18;96175.53;5093019;28;20051;-79
2021/06/28 09:08:55;;;;;;;4.45;1.90;;;;;;;30.69;38.57;96183.41;5093439;28;20040;-78
2021/06/28 09:11:22;;;;;;;6.82;1.58;;;;;;;30.33;41.04;96179.03;5093001;28;20052;-78
2021/06/28 09:13:50;;;;;;;2.95;1.50;;;;;;;30.16;43.26;96180.38;5093302;28;20419;-78
2021/06/28 09:16:19;;;;;;;3.08;1.70;;;;;;;30.01;40.17;96177.22;5092785;28;20126;-78
2021/06/28 09:18:51;;;;;;;6.72;1.70;;;;;;;29.79;38.64;96179.94;5093195;28;20089;-79
2021/06/28 09:21:24;;;;;;;1.83;1.20;;;;;;;29.66;41.62;96186.78;5092596;28;20052;-79
2021/06/28 09:23:51;;;;;;;1.50;1.20;;;;;;;29.69;42.38;96181.03;5093190;28;20043;-79
2021/06/28 09:26:19;;;;;;;2.90;1.20;;;;;;;29.73;43.54;96181.72;5092614;28;20055;-78
2021/06/28 09:28:48;;;;;;;3.17;1.67;;;;;;;29.69;42.07;96183.84;5088304;28;20047;-80
2021/06/28 09:31:18;;;;;;;2.17;1.40;;;;;;;29.65;42.98;96174.75;5072167;28;20060;-79
2021/06/28 09:34:04;;;;;;;1.85;1.48;;;;;;;29.41;39.88;96181.91;5072845;28;20040;-79
2021/06/28 09:36:30;;;;;;;2.58;1.55;;;;;;;29.26;42.45;96173.91;5052466;28;20045;-78
2021/06/28 09:38:57;;;;;;;1.50;1.33;;;;;;;29.12;42.13;96182.72;5036663;28;20041;-78
2021/06/28 09:41:27;;;;;;;2.85;1.42;;;;;;;28.96;42.75;96174.38;5031446;28;20048;-79
2021/06/28 09:43:59;;;;;;;1.88;1.50;;;;;;;28.89;43.35;96174.56;5032664;28;20048;-79
2021/06/28 09:46:27;;;;;;;2.05;1.50;;;;;;;28.97;43.20;96170.31;5032147;28;20045;-78
2021/06/28 09:48:55;;;;;;;2.10;1.45;;;;;;;29.00;42.77;96175.84;5032213;28;20064;-79
2021/06/28 09:51:25;;;;;;;2.38;1.45;;;;;;;29.04;45.05;96172.94;5032044;28;20536;-79
2021/06/28 09:53:53;;;;;;;5.13;2.28;;;;;;;29.06;43.70;96164.88;5032523;28;20053;-78
2021/06/28 09:56:35;;;;;;;1.60;1.45;;;;;;;29.24;46.18;96167.97;5031772;28;20077;-78
2021/06/28 09:59:24;;;;;;;2.60;1.70;;;;;;;29.31;41.70;96170.53;5038938;28;20555;-78
2021/06/28 10:01:53;;;;;;;2.67;1.60;;;;;;;29.33;44.95;96170.88;5052086;28;20041;-79
2021/06/28 10:04:38;;;;;;;5.97;2.00;;;;;;;29.43;46.10;96162.59;5056226;28;20605;-78
2021/06/28 10:07:17;;;;;;;3.10;1.70;;;;;;;29.52;43.99;96171.91;5071616;28;20640;-79
2021/06/28 10:09:44;;;;;;;4.22;1.30;;;;;;;29.52;44.54;96176.75;5072081;28;20037;-79
2021/06/28 10:12:20;;;;;;;2.88;1.67;;;;;;;29.60;46.67;96161.28;5071532;28;20081;-79
2021/06/28 10:14:47;;;;;;;2.88;1.60;;;;;;;29.70;42.79;96160.16;5071910;28;20040;-79
2021/06/28 10:17:13;;;;;;;5.70;1.75;;;;;;;29.67;40.78;96163.88;5071473;28;20040;-79
2021/06/28 10:19:42;;;;;;;3.00;1.48;;;;;;;29.62;40.45;96156.81;5071542;28;20479;-79
2021/06/28 10:22:09;;;;;;;1.50;1.40;;;;;;;29.63;39.91;96157.59;5071429;28;20059;-78
2021/06/28 10:24:36;;;;;;;1.75;1.50;;;;;;;29.69;40.90;96164.22;5071746;28;20431;-78
2021/06/28 10:27:03;;;;;;;1.63;1.40;;;;;;;29.72;41.71;96157.72;5071291;28;20071;-78
2021/06/28 10:29:32;;;;;;;3.35;2.35;;;;;;;29.67;40.49;96155.47;5060959;28;20051;-79
2021/06/28 10:32:04;;;;;;;2.40;1.60;;;;;;;29.68;40.68;96151.41;5051580;28;20107;-79
2021/06/28 10:34:31;;;;;;;2.20;1.70;;;;;;;29.70;38.51;96148.94;5057413;28;20041;-80
2021/06/28 10:36:59;;;;;;;1.92;1.40;;;;;;;29.72;38.40;96145.69;5071562;28;20040;-79
2021/06/28 10:39:30;;;;;;;1.98;1.30;;;;;;;29.72;42.27;96137.28;5070952;28;20040;-79
2021/06/28 10:41:56;;;;;;;4.43;1.58;;;;;;;29.71;40.36;96133.69;5071553;28;20068;-80
2021/06/28 10:44:24;;;;;;;1.88;1.60;;;;;;;29.71;42.80;96133.69;5070653;28;20126;-78
2021/06/28 10:46:54;;;;;;;2.47;1.70;;;;;;;29.76;37.08;96140.78;5071298;28;20048;-79
2021/06/28 10:49:45;;;;;;;5.72;1.75;;;;;;;29.81;39.52;96137.38;5070630;28;20064;-79
2021/06/28 10:52:12;;;;;;;2.50;1.65;;;;;;;29.85;40.94;96127.59;5070739;28;20056;-79
2021/06/28 10:54:39;;;;;;;3.30;1.80;;;;;;;29.85;43.55;96127.59;5071059;28;20049;-78
2021/06/28 10:57:06;;;;;;;4.95;1.73;;;;;;;29.89;41.07;96121.88;5070760;28;20054;-79
2021/06/28 10:59:41;;;;;;;2.13;1.58;;;;;;;29.97;42.60;96122.44;5060286;28;20048;-79
2021/06/28 11:02:11;;;;;;;5.50;1.70;;;;;;;30.00;43.86;96116.69;5050610;28;20565;-78
2021/06/28 11:04:43;;;;;;;3.25;1.92;;;;;;;29.96;38.63;96120.84;5058076;28;20051;-79
2021/06/28 11:07:24;;;;;;;1.85;1.63;;;;;;;29.89;37.85;96119.06;5052862;28;20048;-78
2021/06/28 11:09:56;;;;;;;5.35;1.55;;;;;;;29.94;42.68;96112.13;5070942;28;20609;-79
2021/06/28 11:12:25;;;;;;;2.00;1.55;;;;;;;29.95;40.69;96108.06;5070769;28;20131;-79
2021/06/28 11:14:53;;;;;;;3.20;1.70;;;;;;;30.02;41.68;96096.63;5070842;28;20040;-78
2021/06/28 11:17:24;;;;;;;3.83;1.60;;;;;;;30.02;40.25;96102.22;5070561;28;20079;-79
2021/06/28 11:19:58;;;;;;;3.92;1.45;;;;;;;29.94;38.08;96103.69;5070738;28;20065;-79
2021/06/28 11:22:47;;;;;;;3.50;1.48;;;;;;;29.92;39.45;96097.75;5070609;28;20044;-79
2021/06/28 11:25:22;;;;;;;3.75;1.35;;;;;;;29.91;36.29;96096.94;5070625;28;20040;-79
2021/06/28 11:28:10;;;;;;;2.88;1.52;;;;;;;29.93;37.90;96100.09;5070827;28;20045;-79
2021/06/28 11:30:47;;;;;;;2.97;1.33;;;;;;;29.96;38.94;96096.38;5050650;28;20576;-79
2021/06/28 11:33:15;;;;;;;2.20;1.50;;;;;;;29.95;35.90;96086.38;5050360;28;20044;-79
2021/06/28 11:35:44;;;;;;;2.35;1.70;;;;;;;29.92;36.42;96092.13;5066662;28;20036;-79
2021/06/28 11:38:23;;;;;;;1.88;1.20;;;;;;;29.90;37.43;96079.31;5070430;28;20049;-79